^^
Station Historical Data
Daily Summary for January 13, 2017 Units:  English    Metric   Both
« Previous Day
Next Day »
Daily Weekly Monthly Yearly Custom
  High: Low: Average:
Temperature: 53.8 °F 29.8 °F 41.8 °F
Dew Point: 51.5 °F 16.3 °F 30.9 °F
Humidity: 93 % 46 % 67 %
Wind Speed: 16.0 mph 0.0 mph 5.2 mph
Wind Gust: 22.0 mph - -
Wind:- - West
Pressure: 30.72 in 30.13 in -
Precipitation: 0.01 in    
Historical Graphs
 
 
Tabular Data for January 13, 2017
Time Temperature Dew Point Pressure Wind Wind Speed Wind Gust Humidity Rainfall Rate (Hourly) solar Conditions
00:03 53.8 °F 51.5 °F 30.13 in WSW 0.1 mph 1.2 mph 92 % 0.00 in 0.0 W/m2 RA
00:08 53.7 °F 51.4 °F 30.13 in Calm   3.5 mph 92 % 0.00 in 0.0 W/m2 RA
00:13 53.6 °F 51.3 °F 30.14 in Calm     92 % 0.00 in 0.0 W/m2 CLR
00:18 53.4 °F 51.1 °F 30.14 in WSW 0.6 mph 3.5 mph 92 % 0.00 in 0.0 W/m2 CLR
00:23 53.2 °F 50.9 °F 30.14 in West 1.0 mph 2.3 mph 92 % 0.00 in 0.0 W/m2 CLR
00:28 53.1 °F 51.1 °F 30.14 in WSW 2.0 mph 3.5 mph 93 % 0.00 in 0.0 W/m2 CLR
00:33 53.1 °F 50.8 °F 30.14 in West 2.7 mph 6.9 mph 92 % 0.00 in 0.0 W/m2 CLR
00:38 53.0 °F 51.0 °F 30.14 in WSW 1.3 mph 3.5 mph 93 % 0.00 in 0.0 W/m2 CLR
00:43 52.9 °F 50.6 °F 30.15 in WSW 2.9 mph 4.6 mph 92 % 0.00 in 0.0 W/m2 CLR
00:48 52.9 °F 50.9 °F 30.15 in WSW 2.9 mph 6.9 mph 93 % 0.00 in 0.0 W/m2 CLR
00:53 52.8 °F 50.8 °F 30.15 in West 1.6 mph 3.5 mph 93 % 0.00 in 0.0 W/m2 CLR
00:58 52.7 °F 50.7 °F 30.15 in WSW 0.7 mph 3.5 mph 93 % 0.00 in 0.0 W/m2 CLR
01:03 52.7 °F 50.7 °F 30.15 in SW 1.7 mph 3.5 mph 93 % 0.00 in 0.0 W/m2 CLR
01:08 52.6 °F 50.6 °F 30.15 in SW 2.1 mph 3.5 mph 93 % 0.00 in 0.0 W/m2 CLR
01:13 52.4 °F 50.4 °F 30.16 in Calm   1.2 mph 93 % 0.00 in 0.0 W/m2 CLR
01:18 52.2 °F 50.2 °F 30.16 in Calm   1.2 mph 93 % 0.00 in 0.0 W/m2 CLR
01:23 52.0 °F 50.0 °F 30.16 in SW 0.7 mph 3.5 mph 93 % 0.00 in 0.0 W/m2 CLR
01:28 51.9 °F 49.9 °F 30.17 in Calm     93 % 0.00 in 0.0 W/m2 CLR
01:33 51.7 °F 49.7 °F 30.17 in Calm     93 % 0.00 in 0.0 W/m2 CLR
01:38 51.4 °F 49.4 °F 30.18 in Calm     93 % 0.00 in 0.0 W/m2 CLR
01:43 50.9 °F 48.7 °F 30.17 in Calm     92 % 0.00 in 0.0 W/m2 CLR
01:48 50.7 °F 48.7 °F 30.18 in Calm     93 % 0.00 in 0.0 W/m2 CLR
01:53 50.6 °F 48.7 °F 30.18 in Calm     93 % 0.00 in 0.0 W/m2 CLR
01:58 50.5 °F 48.6 °F 30.19 in Calm     93 % 0.00 in 0.0 W/m2 CLR
02:03 50.2 °F 48.3 °F 30.19 in Calm     93 % 0.00 in 0.0 W/m2 CLR
02:08 50.0 °F 48.1 °F 30.19 in Calm     93 % 0.00 in 0.0 W/m2 CLR
02:13 49.7 °F 47.8 °F 30.20 in Calm     93 % 0.00 in 0.0 W/m2 CLR
02:18 49.2 °F 47.3 °F 30.20 in Calm     93 % 0.00 in 0.0 W/m2 CLR
02:23 48.9 °F 47.0 °F 30.20 in SW 0.5 mph 3.5 mph 93 % 0.00 in 0.0 W/m2 CLR
02:28 48.7 °F 46.8 °F 30.21 in WSW 0.5 mph 1.0 mph 93 % 0.01 in 0.0 W/m2 RA
02:33 48.6 °F 46.7 °F 30.21 in West 0.4 mph 4.0 mph 93 % 0.01 in 0.0 W/m2 RA
02:38 48.7 °F 46.8 °F 30.21 in West 3.0 mph 6.9 mph 93 % 0.01 in 0.0 W/m2
02:43 48.8 °F 46.9 °F 30.21 in WNW 6.2 mph 10.4 mph 93 % 0.01 in 0.0 W/m2
02:48 48.8 °F 46.9 °F 30.21 in West 0.6 mph 3.5 mph 93 % 0.01 in 0.0 W/m2
02:53 48.9 °F 47.0 °F 30.21 in West 3.8 mph 8.1 mph 93 % 0.01 in 0.0 W/m2
02:58 48.9 °F 47.0 °F 30.22 in WNW 4.9 mph 9.2 mph 93 % 0.01 in 0.0 W/m2
03:03 49.0 °F 47.1 °F 30.21 in West 3.4 mph 11.5 mph 93 % 0.01 in 0.0 W/m2
03:08 49.1 °F 47.2 °F 30.21 in West 2.7 mph 5.8 mph 93 % 0.01 in 0.0 W/m2
03:13 49.0 °F 47.1 °F 30.21 in WNW 4.0 mph 6.9 mph 93 % 0.01 in 0.0 W/m2
03:18 48.8 °F 46.9 °F 30.21 in NW 4.1 mph 8.1 mph 93 % 0.01 in 0.0 W/m2
03:23 48.6 °F 46.4 °F 30.22 in NW 6.3 mph 10.4 mph 92 % 0.01 in 0.0 W/m2
03:29 48.6 °F 46.4 °F 30.22 in WNW 4.9 mph 10.4 mph 92 % 0.00 in 0.0 W/m2 CLR
03:34 48.6 °F 46.4 °F 30.22 in NW 2.5 mph 8.1 mph 92 % 0.00 in 0.0 W/m2 CLR
03:39 48.6 °F 46.4 °F 30.22 in WNW 6.8 mph 15.0 mph 92 % 0.00 in 0.0 W/m2 CLR
03:44 48.6 °F 46.4 °F 30.23 in West 3.9 mph 9.2 mph 92 % 0.00 in 0.0 W/m2 CLR
03:49 48.5 °F 46.0 °F 30.23 in WNW 4.5 mph 9.2 mph 91 % 0.00 in 0.0 W/m2 CLR
03:54 48.5 °F 46.0 °F 30.24 in West 4.1 mph 9.2 mph 91 % 0.00 in 0.0 W/m2 CLR
03:59 48.6 °F 46.1 °F 30.24 in West 2.8 mph 6.9 mph 91 % 0.00 in 0.0 W/m2 CLR
04:04 48.6 °F 45.8 °F 30.24 in WSW 1.6 mph 5.8 mph 90 % 0.00 in 0.0 W/m2 CLR
04:09 48.5 °F 45.4 °F 30.24 in West 4.6 mph 6.9 mph 89 % 0.00 in 0.0 W/m2 CLR
04:14 48.4 °F 45.3 °F 30.25 in West 3.9 mph 6.9 mph 89 % 0.00 in 0.0 W/m2 CLR
04:19 48.3 °F 44.9 °F 30.25 in West 3.1 mph 5.8 mph 88 % 0.00 in 0.0 W/m2 CLR
04:24 48.2 °F 44.8 °F 30.25 in WNW 5.6 mph 10.4 mph 88 % 0.00 in 0.0 W/m2 CLR
04:29 48.1 °F 44.7 °F 30.25 in NW 8.1 mph 12.7 mph 88 % 0.00 in 0.0 W/m2 CLR
04:34 47.9 °F 44.2 °F 30.26 in WNW 4.0 mph 8.0 mph 87 % 0.00 in 0.0 W/m2 CLR
04:39 47.8 °F 43.8 °F 30.27 in WNW 8.2 mph 11.5 mph 86 % 0.00 in 0.0 W/m2 CLR
04:44 47.8 °F 43.5 °F 30.27 in NNW 11.1 mph 16.1 mph 85 % 0.00 in 0.0 W/m2 CLR
04:49 47.9 °F 43.6 °F 30.27 in WNW 9.4 mph 15.0 mph 85 % 0.00 in 0.0 W/m2 CLR
04:54 47.8 °F 42.9 °F 30.27 in WNW 12.1 mph 17.3 mph 83 % 0.00 in 0.0 W/m2 CLR
04:59 47.7 °F 42.8 °F 30.27 in West 11.5 mph 16.1 mph 83 % 0.00 in 0.0 W/m2 CLR
05:04 47.6 °F 42.4 °F 30.28 in NW 8.6 mph 11.5 mph 82 % 0.00 in 0.0 W/m2 CLR
05:09 47.5 °F 42.0 °F 30.29 in WNW 10.9 mph 17.3 mph 81 % 0.00 in 0.0 W/m2 CLR
05:14 47.3 °F 41.4 °F 30.30 in West 10.5 mph 18.0 mph 80 % 0.00 in 0.0 W/m2 CLR
05:19 47.3 °F 41.4 °F 30.30 in West 6.9 mph 9.2 mph 80 % 0.00 in 0.0 W/m2 CLR
05:24 47.1 °F 40.9 °F 30.30 in SW 11.8 mph 17.3 mph 79 % 0.00 in 0.0 W/m2 CLR
05:29 46.9 °F 40.7 °F 30.31 in WSW 8.5 mph 13.8 mph 79 % 0.00 in 0.0 W/m2 CLR
05:34 46.7 °F 40.5 °F 30.32 in WNW 9.0 mph 11.5 mph 79 % 0.00 in 0.0 W/m2 CLR
05:39 46.6 °F 40.4 °F 30.32 in WNW 4.5 mph 6.9 mph 79 % 0.00 in 0.0 W/m2 CLR
05:44 46.3 °F 40.1 °F 30.33 in WNW 7.6 mph 11.5 mph 79 % 0.00 in 0.0 W/m2 CLR
05:49 46.1 °F 39.9 °F 30.33 in WNW 8.6 mph 13.8 mph 79 % 0.00 in 0.0 W/m2 CLR
05:54 45.8 °F 39.7 °F 30.33 in WNW 9.5 mph 11.5 mph 79 % 0.00 in 0.0 W/m2 CLR
05:59 45.7 °F 39.6 °F 30.34 in NW 6.8 mph 10.4 mph 79 % 0.00 in 0.0 W/m2 CLR
06:04 45.5 °F 39.4 °F 30.34 in WNW 4.7 mph 10.4 mph 79 % 0.00 in 0.0 W/m2 CLR
06:09 45.4 °F 39.3 °F 30.35 in West 4.7 mph 7.0 mph 79 % 0.00 in 0.0 W/m2 CLR
06:14 45.2 °F 39.1 °F 30.35 in WSW 3.4 mph 9.2 mph 79 % 0.00 in 0.0 W/m2 CLR
06:19 45.0 °F 38.9 °F 30.35 in West 3.3 mph 6.9 mph 79 % 0.00 in 0.0 W/m2 CLR
06:24 44.8 °F 38.7 °F 30.35 in WNW 5.8 mph 11.5 mph 79 % 0.00 in 0.0 W/m2 CLR
06:29 44.4 °F 38.3 °F 30.36 in West 8.7 mph 18.4 mph 79 % 0.00 in 0.0 W/m2 CLR
06:34 44.0 °F 37.6 °F 30.37 in NW 7.4 mph 13.8 mph 78 % 0.00 in 0.0 W/m2 CLR
06:39 43.7 °F 37.3 °F 30.37 in NW 9.1 mph 15.0 mph 78 % 0.00 in 0.0 W/m2 CLR
06:44 43.5 °F 37.1 °F 30.37 in WNW 5.5 mph 11.5 mph 78 % 0.00 in 0.0 W/m2 CLR
06:50 43.4 °F 36.7 °F 30.38 in WNW 6.7 mph 10.0 mph 77 % 0.00 in 0.0 W/m2 CLR
06:55 43.2 °F 36.5 °F 30.38 in NW 6.0 mph 11.5 mph 77 % 0.00 in 0.0 W/m2 CLR
07:00 43.0 °F 36.3 °F 30.38 in WNW 6.3 mph 11.5 mph 77 % 0.00 in 0.0 W/m2 CLR
07:05 42.9 °F 36.2 °F 30.38 in WNW 4.8 mph 9.2 mph 77 % 0.00 in 0.0 W/m2 OVC
07:10 42.7 °F 36.0 °F 30.39 in WNW 6.0 mph 9.2 mph 77 % 0.00 in 0.0 W/m2 OVC
07:15 42.4 °F 36.0 °F 30.39 in WSW 3.6 mph 9.2 mph 78 % 0.00 in 0.0 W/m2 OVC
07:20 42.2 °F 35.8 °F 30.40 in WNW 3.0 mph 10.0 mph 78 % 0.00 in 0.0 W/m2 OVC
07:25 42.1 °F 35.7 °F 30.41 in WNW 5.0 mph 5.0 mph 78 % 0.00 in 0.0 W/m2 OVC
07:30 41.8 °F 35.4 °F 30.41 in NW 4.8 mph 9.2 mph 78 % 0.00 in 7.0 W/m2 OVC
07:35 41.5 °F 34.8 °F 30.41 in WNW 5.0 mph 10.0 mph 77 % 0.00 in 11.0 W/m2 OVC
07:40 41.3 °F 34.6 °F 30.42 in NW 8.0 mph 12.0 mph 77 % 0.00 in 12.0 W/m2 OVC
07:45 41.2 °F 34.5 °F 30.42 in WNW 2.9 mph 6.9 mph 77 % 0.00 in 14.0 W/m2 CLR
07:50 41.1 °F 34.4 °F 30.42 in WNW 7.3 mph 7.3 mph 77 % 0.00 in 16.0 W/m2 CLR
07:55 41.1 °F 34.4 °F 30.42 in WNW 4.0 mph 4.6 mph 77 % 0.00 in 18.0 W/m2 CLR
08:00 41.2 °F 34.5 °F 30.43 in NW 5.8 mph 9.2 mph 77 % 0.00 in 23.0 W/m2 FEW
08:05 41.2 °F 34.2 °F 30.43 in WNW 4.7 mph 11.5 mph 76 % 0.00 in 28.0 W/m2 FEW
08:10 41.2 °F 34.2 °F 30.44 in WNW 5.5 mph 8.0 mph 76 % 0.00 in 32.0 W/m2 SCT
08:15 41.1 °F 34.1 °F 30.44 in West 3.4 mph 6.9 mph 76 % 0.00 in 33.0 W/m2 SCT
08:20 41.1 °F 34.1 °F 30.44 in WSW 5.1 mph 9.2 mph 76 % 0.00 in 32.0 W/m2 SCT
08:25 40.9 °F 33.9 °F 30.45 in West 4.5 mph 6.9 mph 76 % 0.00 in 42.0 W/m2 SCT
08:30 40.8 °F 33.8 °F 30.45 in West 1.8 mph 3.5 mph 76 % 0.00 in 42.0 W/m2 BKN
08:35 40.7 °F 33.7 °F 30.46 in WSW 4.3 mph 8.1 mph 76 % 0.00 in 58.0 W/m2 SCT
08:40 40.7 °F 33.7 °F 30.46 in WNW 5.1 mph 10.4 mph 76 % 0.00 in 63.0 W/m2 SCT
08:45 40.9 °F 33.6 °F 30.46 in West 7.4 mph 11.5 mph 75 % 0.00 in 47.0 W/m2 BKN
08:50 41.0 °F 33.0 °F 30.46 in West 6.8 mph 11.5 mph 73 % 0.00 in 76.0 W/m2 SCT
08:55 41.1 °F 33.1 °F 30.47 in West 7.5 mph 10.4 mph 73 % 0.00 in 105.0 W/m2 FEW
09:00 41.2 °F 33.2 °F 30.47 in WNW 5.9 mph 11.5 mph 73 % 0.00 in 195.0 W/m2 CLR
09:05 41.5 °F 33.1 °F 30.47 in WSW 7.6 mph 10.4 mph 72 % 0.00 in 195.0 W/m2 CLR
09:10 41.6 °F 32.9 °F 30.47 in NW 7.5 mph 16.1 mph 71 % 0.00 in 137.0 W/m2 CLR
09:15 41.9 °F 33.2 °F 30.48 in WNW 8.2 mph 17.3 mph 71 % 0.00 in 206.0 W/m2 CLR
09:20 42.0 °F 32.9 °F 30.48 in West 9.0 mph 13.0 mph 70 % 0.00 in 109.0 W/m2 SCT
09:25 42.0 °F 32.6 °F 30.48 in West 12.1 mph 17.3 mph 69 % 0.00 in 127.0 W/m2 SCT
09:30 42.1 °F 33.0 °F 30.49 in WNW 5.5 mph 9.2 mph 70 % 0.00 in 153.0 W/m2 SCT
09:35 42.3 °F 32.8 °F 30.49 in NW 10.2 mph 15.0 mph 69 % 0.00 in 171.0 W/m2 FEW
09:40 42.3 °F 32.8 °F 30.49 in West 6.1 mph 10.4 mph 69 % 0.00 in 185.0 W/m2 FEW
09:45 42.6 °F 33.1 °F 30.49 in NW 4.5 mph 9.2 mph 69 % 0.00 in 221.0 W/m2 CLR
09:50 42.9 °F 33.1 °F 30.49 in NNW 3.7 mph 5.0 mph 68 % 0.00 in 248.0 W/m2 CLR
09:55 42.9 °F 33.1 °F 30.50 in WNW 2.3 mph 3.5 mph 68 % 0.00 in 220.0 W/m2 FEW
10:00 42.8 °F 32.2 °F 30.50 in NW 5.4 mph 9.2 mph 66 % 0.00 in 229.0 W/m2 CLR
10:05 42.6 °F 32.0 °F 30.49 in WNW 8.9 mph 12.7 mph 66 % 0.00 in 197.0 W/m2 FEW
10:10 42.5 °F 31.9 °F 30.49 in NW 7.0 mph 11.5 mph 66 % 0.00 in 193.0 W/m2 FEW
10:15 42.7 °F 32.1 °F 30.49 in WNW 8.6 mph 16.0 mph 66 % 0.00 in 209.0 W/m2 FEW
10:20 42.4 °F 31.8 °F 30.49 in NNW 11.1 mph 13.8 mph 66 % 0.00 in 179.0 W/m2 SCT
10:25 42.6 °F 31.7 °F 30.49 in NNW 9.9 mph 17.3 mph 65 % 0.00 in 202.0 W/m2 SCT
10:30 42.8 °F 31.8 °F 30.49 in NW 11.4 mph 16.1 mph 65 % 0.00 in 167.0 W/m2 SCT
10:35 42.6 °F 31.3 °F 30.49 in WNW 10.2 mph 15.0 mph 64 % 0.00 in 127.0 W/m2 SCT
10:40 42.8 °F 31.5 °F 30.49 in NNW 8.1 mph 11.5 mph 64 % 0.00 in 243.0 W/m2 FEW
10:45 42.7 °F 31.4 °F 30.49 in NW 9.1 mph 15.0 mph 64 % 0.00 in 251.0 W/m2 SCT
10:50 43.0 °F 31.6 °F 30.49 in NW 6.5 mph 11.5 mph 64 % 0.00 in 213.0 W/m2 SCT
10:55 43.0 °F 31.3 °F 30.49 in WNW 7.6 mph 12.7 mph 63 % 0.00 in 234.0 W/m2 SCT
11:01 43.4 °F 31.6 °F 30.49 in NW 7.7 mph 11.5 mph 63 % 0.00 in 253.0 W/m2 FEW
11:06 43.6 °F 31.8 °F 30.49 in NW 6.7 mph 11.0 mph 63 % 0.00 in 230.0 W/m2 FEW
11:11 43.8 °F 31.6 °F 30.50 in North 9.9 mph 13.8 mph 62 % 0.00 in 406.0 W/m2 CLR
11:16 44.3 °F 32.1 °F 30.50 in NW 8.4 mph 11.5 mph 62 % 0.00 in 322.0 W/m2 CLR
11:21 44.4 °F 31.8 °F 30.50 in WNW 4.3 mph 8.1 mph 61 % 0.00 in 334.0 W/m2 CLR
11:26 44.6 °F 31.6 °F 30.49 in NNW 5.7 mph 11.5 mph 60 % 0.00 in 448.0 W/m2 CLR
11:31 44.9 °F 31.8 °F 30.49 in WNW 7.9 mph 15.0 mph 60 % 0.00 in 476.0 W/m2 CLR
11:36 45.0 °F 31.1 °F 30.49 in NW 11.6 mph 20.7 mph 58 % 0.00 in 399.0 W/m2 CLR
11:41 44.5 °F 30.6 °F 30.49 in NW 12.1 mph 20.7 mph 58 % 0.00 in 297.0 W/m2 FEW
11:46 44.4 °F 30.5 °F 30.49 in NNW 5.4 mph 10.0 mph 58 % 0.00 in 355.0 W/m2 CLR
11:51 44.5 °F 30.6 °F 30.49 in NW 9.4 mph 15.0 mph 58 % 0.00 in 360.0 W/m2 CLR
11:56 44.3 °F 29.6 °F 30.49 in NW 11.1 mph 15.0 mph 56 % 0.00 in 267.0 W/m2 FEW
12:01 44.3 °F 30.0 °F 30.49 in WNW 9.6 mph 13.8 mph 57 % 0.00 in 352.0 W/m2 FEW
12:06 44.3 °F 30.0 °F 30.49 in NNW 5.8 mph 11.5 mph 57 % 0.00 in 450.0 W/m2 CLR
12:09 44.5 °F 29.8 °F 30.49 in NW 12.0 mph 22.0 mph 56 % 0.00 in 466.0 W/m2 RA
12:14 44.7 °F 29.5 °F 30.49 in NW 10.0 mph 17.0 mph 55 % 0.00 in 487.0 W/m2 RA
12:21 44.9 °F 29.7 °F 30.49 in NW 16.0 mph 19.0 mph 55 % 0.00 in 376.0 W/m2 OVC
12:26 45.0 °F 29.3 °F 30.49 in WNW 13.5 mph 18.4 mph 54 % 0.00 in 473.0 W/m2 CLR
12:31 44.8 °F 27.8 °F 30.49 in NW 10.6 mph 19.0 mph 51 % 0.00 in 478.0 W/m2 CLR
12:36 44.6 °F 27.1 °F 30.49 in NW 9.8 mph 17.3 mph 50 % 0.00 in 408.0 W/m2 CLR
12:41 44.7 °F 27.7 °F 30.49 in North 9.2 mph 12.0 mph 51 % 0.00 in 404.0 W/m2 FEW
12:46 44.3 °F 27.3 °F 30.49 in North 4.7 mph 11.5 mph 51 % 0.00 in 461.0 W/m2 CLR
12:51 44.8 °F 27.8 °F 30.49 in WNW 11.2 mph 12.7 mph 51 % 0.00 in 434.0 W/m2 CLR
12:56 45.0 °F 27.9 °F 30.49 in WNW 6.5 mph 11.5 mph 51 % 0.00 in 487.0 W/m2 CLR
13:01 45.4 °F 27.8 °F 30.49 in NW 7.2 mph 11.5 mph 50 % 0.00 in 487.0 W/m2 CLR
13:07 45.8 °F 28.2 °F 30.50 in West 8.2 mph 11.5 mph 50 % 0.00 in 461.0 W/m2 CLR
13:12 45.3 °F 27.2 °F 30.50 in NW 11.8 mph 16.1 mph 49 % 0.00 in 461.0 W/m2 CLR
13:17 45.3 °F 27.7 °F 30.50 in NW 12.9 mph 18.4 mph 50 % 0.00 in 408.0 W/m2 CLR
13:22 44.9 °F 27.4 °F 30.50 in NW 10.8 mph 17.0 mph 50 % 0.00 in 438.0 W/m2 CLR
13:27 44.7 °F 27.7 °F 30.50 in NW 10.8 mph 15.0 mph 51 % 0.00 in 415.0 W/m2 CLR
13:32 44.9 °F 27.8 °F 30.50 in NNW 11.9 mph 16.1 mph 51 % 0.00 in 339.0 W/m2 CLR
13:37 44.7 °F 27.7 °F 30.50 in WNW 10.7 mph 11.5 mph 51 % 0.00 in 436.0 W/m2 CLR
13:42 44.8 °F 27.8 °F 30.50 in NNW 7.5 mph 12.7 mph 51 % 0.00 in 369.0 W/m2 CLR
13:47 45.0 °F 28.4 °F 30.50 in NW 6.4 mph 12.7 mph 52 % 0.00 in 367.0 W/m2 CLR
13:52 44.8 °F 27.8 °F 30.51 in WNW 3.8 mph 7.0 mph 51 % 0.00 in 299.0 W/m2 CLR
13:57 44.9 °F 28.3 °F 30.51 in NNW 8.3 mph 12.7 mph 52 % 0.00 in 390.0 W/m2 CLR
14:02 45.3 °F 28.7 °F 30.51 in NW 5.3 mph 11.5 mph 52 % 0.00 in 381.0 W/m2 CLR
14:07 44.9 °F 26.4 °F 30.51 in NNW 5.9 mph 10.4 mph 48 % 0.00 in 376.0 W/m2 CLR
14:12 45.0 °F 27.5 °F 30.51 in NW 8.0 mph 12.7 mph 50 % 0.00 in 369.0 W/m2 CLR
14:17 44.7 °F 26.7 °F 30.51 in NW 6.1 mph 13.8 mph 49 % 0.00 in 322.0 W/m2 CLR
14:22 44.5 °F 26.5 °F 30.52 in NNW 5.9 mph 10.4 mph 49 % 0.00 in 366.0 W/m2 CLR
14:27 44.5 °F 26.0 °F 30.52 in NW 8.4 mph 18.4 mph 48 % 0.00 in 272.0 W/m2 CLR
14:32 44.3 °F 25.8 °F 30.52 in NNW 6.8 mph 11.5 mph 48 % 0.00 in 318.0 W/m2 CLR
14:37 44.0 °F 25.0 °F 30.52 in NNW 11.2 mph 17.3 mph 47 % 0.00 in 346.0 W/m2 CLR
14:42 43.6 °F 24.7 °F 30.52 in NW 7.0 mph 11.5 mph 47 % 0.00 in 257.0 W/m2 CLR
14:47 43.6 °F 24.7 °F 30.52 in WNW 11.0 mph 19.0 mph 47 % 0.00 in 239.0 W/m2 CLR
14:52 43.8 °F 24.9 °F 30.53 in NW 6.0 mph 11.0 mph 47 % 0.00 in 285.0 W/m2 CLR
14:57 43.9 °F 24.4 °F 30.53 in NW 8.7 mph 11.5 mph 46 % 0.00 in 267.0 W/m2 CLR
15:02 43.6 °F 24.2 °F 30.53 in WNW 9.4 mph 16.1 mph 46 % 0.00 in 255.0 W/m2 CLR
15:07 43.3 °F 24.4 °F 30.53 in NNW 8.6 mph 15.0 mph 47 % 0.00 in 236.0 W/m2 CLR
15:12 43.2 °F 24.3 °F 30.53 in NW 8.6 mph 11.5 mph 47 % 0.00 in 223.0 W/m2 CLR
15:17 43.3 °F 24.4 °F 30.53 in NW 9.5 mph 13.0 mph 47 % 0.00 in 230.0 W/m2 CLR
15:22 42.9 °F 23.5 °F 30.53 in NNW 10.7 mph 12.0 mph 46 % 0.00 in 155.0 W/m2 CLR
15:27 42.8 °F 24.4 °F 30.54 in NW 6.8 mph 11.5 mph 48 % 0.00 in 139.0 W/m2 CLR
15:32 42.5 °F 24.2 °F 30.54 in NW 7.2 mph 11.5 mph 48 % 0.00 in 107.0 W/m2 FEW
15:37 42.0 °F 23.2 °F 30.55 in NW 5.1 mph 10.4 mph 47 % 0.00 in 114.0 W/m2 FEW
15:42 41.9 °F 22.6 °F 30.55 in NNE 8.1 mph 17.3 mph 46 % 0.00 in 114.0 W/m2 CLR
15:47 41.5 °F 22.2 °F 30.55 in NNW 9.5 mph 15.0 mph 46 % 0.00 in 90.0 W/m2 FEW
15:52 41.2 °F 22.0 °F 30.56 in NW 6.2 mph 11.5 mph 46 % 0.00 in 72.0 W/m2 SCT
15:57 41.0 °F 21.8 °F 30.56 in NNW 9.0 mph 13.8 mph 46 % 0.00 in 72.0 W/m2 FEW
16:02 40.8 °F 21.6 °F 30.56 in NW 10.9 mph 17.3 mph 46 % 0.00 in 62.0 W/m2 SCT
16:07 40.6 °F 21.4 °F 30.57 in NNW 6.1 mph 10.4 mph 46 % 0.00 in 51.0 W/m2 SCT
16:12 40.3 °F 21.6 °F 30.57 in NW 8.4 mph 12.7 mph 47 % 0.00 in 44.0 W/m2 SCT
16:17 40.1 °F 21.5 °F 30.57 in NNW 9.5 mph 11.5 mph 47 % 0.00 in 39.0 W/m2 SCT
16:22 39.9 °F 20.8 °F 30.57 in NNW 9.3 mph 17.3 mph 46 % 0.00 in 35.0 W/m2 FEW
16:28 39.8 °F 21.7 °F 30.58 in NW 7.7 mph 10.4 mph 48 % 0.00 in 30.0 W/m2 FEW
16:33 39.5 °F 21.4 °F 30.58 in NW 4.2 mph 8.1 mph 48 % 0.00 in 25.0 W/m2 FEW
16:38 39.3 °F 21.7 °F 30.58 in NNW 4.1 mph 10.4 mph 49 % 0.00 in 18.0 W/m2 FEW
16:43 39.2 °F 21.6 °F 30.58 in NW 6.3 mph 11.0 mph 49 % 0.00 in 12.0 W/m2 CLR
16:48 39.0 °F 21.9 °F 30.58 in NNW 2.0 mph 5.8 mph 50 % 0.00 in 7.0 W/m2 CLR
16:53 38.7 °F 22.1 °F 30.58 in NW 3.1 mph 4.6 mph 51 % 0.00 in 0.0 W/m2 OVC
16:58 38.6 °F 22.0 °F 30.58 in NW 2.7 mph 3.5 mph 51 % 0.00 in 0.0 W/m2 OVC
17:03 38.5 °F 21.9 °F 30.59 in North 2.8 mph 5.8 mph 51 % 0.00 in 0.0 W/m2 CLR
17:08 38.4 °F 21.8 °F 30.59 in NNW 5.5 mph 8.1 mph 51 % 0.00 in 0.0 W/m2 CLR
17:13 38.4 °F 21.8 °F 30.59 in NNW 0.9 mph 6.0 mph 51 % 0.00 in 0.0 W/m2 CLR
17:18 38.2 °F 21.6 °F 30.59 in NNW 4.2 mph 10.4 mph 51 % 0.00 in 0.0 W/m2 CLR
17:23 38.0 °F 21.5 °F 30.60 in North 3.2 mph 5.8 mph 51 % 0.00 in 0.0 W/m2 CLR
17:28 37.9 °F 21.4 °F 30.60 in North 3.0 mph 4.6 mph 51 % 0.00 in 0.0 W/m2 CLR
17:33 37.7 °F 21.6 °F 30.60 in NNW 5.8 mph 11.5 mph 52 % 0.00 in 0.0 W/m2 CLR
17:38 37.6 °F 21.5 °F 30.60 in NNW 4.3 mph 8.1 mph 52 % 0.00 in 0.0 W/m2 CLR
17:43 37.4 °F 21.8 °F 30.61 in NNE 3.4 mph 4.6 mph 53 % 0.00 in 0.0 W/m2 CLR
17:48 37.2 °F 22.1 °F 30.61 in NNE 3.8 mph 5.8 mph 54 % 0.00 in 0.0 W/m2 CLR
17:53 37.0 °F 21.9 °F 30.61 in North 4.0 mph 5.0 mph 54 % 0.00 in 0.0 W/m2 CLR
17:58 36.7 °F 22.0 °F 30.61 in NNE 4.3 mph 5.8 mph 55 % 0.00 in 0.0 W/m2 CLR
18:03 36.6 °F 21.9 °F 30.62 in North 2.5 mph 3.5 mph 55 % 0.00 in 0.0 W/m2 CLR
18:08 36.4 °F 22.2 °F 30.62 in NNE 2.7 mph 5.0 mph 56 % 0.00 in 0.0 W/m2 CLR
18:13 36.2 °F 21.6 °F 30.62 in North 3.7 mph 10.4 mph 55 % 0.00 in 0.0 W/m2 CLR
18:18 36.1 °F 21.5 °F 30.62 in North 2.8 mph 8.1 mph 55 % 0.00 in 0.0 W/m2 CLR
18:23 35.9 °F 21.3 °F 30.63 in NNW 3.0 mph 5.8 mph 55 % 0.00 in 0.0 W/m2 CLR
18:28 35.7 °F 20.7 °F 30.62 in North 3.4 mph 4.6 mph 54 % 0.00 in 0.0 W/m2 CLR
18:33 35.5 °F 20.5 °F 30.63 in NNE 3.7 mph 4.6 mph 54 % 0.00 in 0.0 W/m2 CLR
18:38 35.3 °F 20.7 °F 30.63 in NNE 5.4 mph 9.0 mph 55 % 0.00 in 0.0 W/m2 CLR
18:43 35.0 °F 20.4 °F 30.63 in NNE 4.4 mph 8.1 mph 55 % 0.00 in 0.0 W/m2 CLR
18:48 34.7 °F 20.2 °F 30.64 in North 1.9 mph 3.5 mph 55 % 0.00 in 0.0 W/m2 CLR
18:53 34.5 °F 19.5 °F 30.64 in NE 2.9 mph 6.0 mph 54 % 0.00 in 0.0 W/m2 CLR
18:58 34.4 °F 19.5 °F 30.64 in NNW 6.6 mph 10.4 mph 54 % 0.00 in 0.0 W/m2 CLR
19:03 34.4 °F 19.5 °F 30.65 in NNE 3.7 mph 4.6 mph 54 % 0.00 in 0.0 W/m2 CLR
19:08 34.3 °F 19.4 °F 30.65 in NNE 7.3 mph 11.5 mph 54 % 0.00 in 0.0 W/m2 CLR
19:13 34.2 °F 19.3 °F 30.65 in NNW 3.9 mph 8.0 mph 54 % 0.00 in 0.0 W/m2 CLR
19:18 34.1 °F 19.2 °F 30.66 in NNW 2.8 mph 6.0 mph 54 % 0.00 in 0.0 W/m2 CLR
19:23 34.0 °F 19.5 °F 30.66 in NNW 2.7 mph 5.8 mph 55 % 0.00 in 0.0 W/m2 CLR
19:28 33.7 °F 19.7 °F 30.66 in NNW 2.0 mph 3.5 mph 56 % 0.00 in 0.0 W/m2 CLR
19:33 33.6 °F 19.6 °F 30.66 in NNE 2.9 mph 5.0 mph 56 % 0.00 in 0.0 W/m2 CLR
19:38 33.5 °F 19.9 °F 30.67 in North 5.1 mph 8.1 mph 57 % 0.00 in 0.0 W/m2 CLR
19:43 33.4 °F 19.8 °F 30.67 in NNE 5.9 mph 9.2 mph 57 % 0.00 in 0.0 W/m2 CLR
19:48 33.5 °F 19.9 °F 30.67 in North 2.8 mph 4.6 mph 57 % 0.00 in 0.0 W/m2 CLR
19:53 33.4 °F 19.8 °F 30.66 in North 2.2 mph 4.6 mph 57 % 0.00 in 0.0 W/m2 CLR
19:58 33.4 °F 19.8 °F 30.67 in NNW 3.1 mph 5.8 mph 57 % 0.00 in 0.0 W/m2 CLR
20:03 33.3 °F 19.7 °F 30.67 in NNW 2.2 mph 5.8 mph 57 % 0.00 in 0.0 W/m2 CLR
20:08 33.2 °F 19.6 °F 30.67 in NNE 3.3 mph 4.6 mph 57 % 0.00 in 0.0 W/m2 CLR
20:13 33.1 °F 19.1 °F 30.67 in NNE 4.8 mph 11.0 mph 56 % 0.00 in 0.0 W/m2 CLR
20:18 33.1 °F 19.1 °F 30.67 in North 3.6 mph 4.6 mph 56 % 0.00 in 0.0 W/m2 CLR
20:23 33.0 °F 18.6 °F 30.67 in North 2.8 mph 5.8 mph 55 % 0.00 in 0.0 W/m2 CLR
20:28 33.0 °F 19.0 °F 30.67 in North 3.1 mph 4.6 mph 56 % 0.00 in 0.0 W/m2 CLR
20:33 32.9 °F 18.9 °F 30.67 in NNE 4.0 mph 5.0 mph 56 % 0.00 in 0.0 W/m2 CLR
20:39 32.8 °F 18.8 °F 30.67 in NNE 2.8 mph 8.1 mph 56 % 0.00 in 0.0 W/m2 CLR
20:44 32.8 °F 18.4 °F 30.68 in North 4.6 mph 9.2 mph 55 % 0.00 in 0.0 W/m2 CLR
20:49 32.8 °F 18.4 °F 30.68 in NNE 3.8 mph 5.0 mph 55 % 0.00 in 0.0 W/m2 CLR
20:54 32.7 °F 18.3 °F 30.68 in North 3.2 mph 4.6 mph 55 % 0.00 in 0.0 W/m2 CLR
20:59 32.6 °F 18.2 °F 30.68 in North 4.1 mph 9.2 mph 55 % 0.00 in 0.0 W/m2 CLR
21:04 32.5 °F 17.7 °F 30.68 in North 4.2 mph 8.1 mph 54 % 0.00 in 0.0 W/m2 CLR
21:09 32.4 °F 18.0 °F 30.69 in NNW 1.6 mph 3.5 mph 55 % 0.00 in 0.0 W/m2 CLR
21:14 32.3 °F 17.9 °F 30.69 in NNE 1.8 mph 4.6 mph 55 % 0.00 in 0.0 W/m2 CLR
21:19 32.1 °F 18.2 °F 30.69 in North 1.6 mph 3.5 mph 56 % 0.00 in 0.0 W/m2 CLR
21:24 31.9 °F 18.0 °F 30.69 in NE 1.9 mph 3.5 mph 56 % 0.00 in 0.0 W/m2 CLR
21:29 31.7 °F 18.2 °F 30.69 in North 1.5 mph 3.5 mph 57 % 0.00 in 0.0 W/m2 CLR
21:34 31.7 °F 17.8 °F 30.69 in NE 3.5 mph 8.1 mph 56 % 0.00 in 0.0 W/m2 CLR
21:39 31.6 °F 17.7 °F 30.69 in NNW 2.7 mph 3.5 mph 56 % 0.00 in 0.0 W/m2 CLR
21:44 31.6 °F 17.7 °F 30.69 in NNE 3.5 mph 9.2 mph 56 % 0.00 in 0.0 W/m2 CLR
21:49 31.6 °F 17.7 °F 30.70 in NNE 4.0 mph 4.6 mph 56 % 0.00 in 0.0 W/m2 CLR
21:54 31.6 °F 17.7 °F 30.69 in North 3.7 mph 5.0 mph 56 % 0.00 in 0.0 W/m2 CLR
21:59 31.6 °F 17.7 °F 30.69 in North 2.7 mph 5.8 mph 56 % 0.00 in 0.0 W/m2 CLR
22:04 31.6 °F 17.7 °F 30.69 in NNE 3.5 mph 4.6 mph 56 % 0.00 in 0.0 W/m2 CLR
22:09 31.4 °F 17.5 °F 30.69 in North 1.4 mph 3.0 mph 56 % 0.00 in 0.0 W/m2 CLR
22:14 31.3 °F 17.4 °F 30.69 in NNE 3.6 mph 4.6 mph 56 % 0.00 in 0.0 W/m2 CLR
22:19 31.2 °F 17.3 °F 30.70 in NNE 2.7 mph 5.0 mph 56 % 0.00 in 0.0 W/m2 CLR
22:24 31.2 °F 17.3 °F 30.70 in North 2.2 mph 3.5 mph 56 % 0.00 in 0.0 W/m2 CLR
22:29 31.1 °F 17.2 °F 30.70 in NNW 1.3 mph 3.5 mph 56 % 0.00 in 0.0 W/m2 CLR
22:34 30.9 °F 17.4 °F 30.70 in Calm     57 % 0.00 in 0.0 W/m2 CLR
22:39 30.9 °F 17.4 °F 30.70 in NNW 2.2 mph 3.5 mph 57 % 0.00 in 0.0 W/m2 CLR
22:44 30.9 °F 17.4 °F 30.71 in Calm     57 % 0.00 in 0.0 W/m2 CLR
22:49 30.9 °F 17.4 °F 30.71 in NNW 0.9 mph 3.5 mph 57 % 0.00 in 0.0 W/m2 CLR
22:54 30.8 °F 17.3 °F 30.71 in Calm     57 % 0.00 in 0.0 W/m2 CLR
22:59 30.7 °F 17.3 °F 30.71 in Calm     57 % 0.00 in 0.0 W/m2 CLR
23:04 30.7 °F 17.3 °F 30.71 in NNW 2.3 mph 3.5 mph 57 % 0.00 in 0.0 W/m2 CLR
23:09 30.7 °F 17.3 °F 30.71 in Calm   1.2 mph 57 % 0.00 in 0.0 W/m2 CLR
23:14 30.7 °F 17.3 °F 30.71 in NNW 2.1 mph 3.5 mph 57 % 0.00 in 0.0 W/m2 CLR
23:19 30.5 °F 17.5 °F 30.72 in NNW 0.6 mph 2.3 mph 58 % 0.00 in 0.0 W/m2 CLR
23:24 30.4 °F 17.0 °F 30.72 in NNW 2.2 mph 5.8 mph 57 % 0.00 in 0.0 W/m2 CLR
23:29 30.4 °F 17.0 °F 30.72 in NNW 4.9 mph 9.2 mph 57 % 0.00 in 0.0 W/m2 CLR
23:34 30.2 °F 16.4 °F 30.72 in NW 3.6 mph 8.1 mph 56 % 0.00 in 0.0 W/m2 CLR
23:39 30.1 °F 16.3 °F 30.72 in NNW 3.1 mph 3.5 mph 56 % 0.00 in 0.0 W/m2 CLR
23:44 30.1 °F 16.7 °F 30.72 in NNW 1.3 mph 4.6 mph 57 % 0.00 in 0.0 W/m2 CLR
23:49 29.9 °F 16.5 °F 30.71 in NNW 0.6 mph 3.5 mph 57 % 0.00 in 0.0 W/m2 CLR
23:54 29.8 °F 16.4 °F 30.71 in NNW 0.4 mph 3.5 mph 57 % 0.00 in 0.0 W/m2 CLR
23:59 29.9 °F 16.9 °F 30.71 in NNW 2.0 mph 3.5 mph 58 % 0.00 in 0.0 W/m2 CLR
Air Products Campus Weather
Compliments of Weather Underground - 3.5 mb